CYVL

Colville Lake / Tommy Kochon Airport

Colville Lake, Northwest Territories, Canada
METAR CYVL 131049Z AUTO 10004KT 9SM OVC044 M18/M20 A2945 RMK SLP006
Observed Flight Rules
Dec-13 @ 10:49 UTC (21 minutes ago) Visual Flight Rules
Wind Visibility Clouds
100° at 4 knots 9 miles
  • Overcast at 4,400' AGL
Temperatures Readings
Current -18°C / -0°F
Dewpoint -20°C / -4°F
Humidity 84%
Altimeter 29.45" Hg
Pressure 1000.6 hPa
Elevation 259
METAR CYVL 131049Z AUTO 10004KT 9SM OVC044 M18/M20 A2945 RMK SLP006
Observed Flight Rules
Dec-13 @ 10:49 UTC
(21 minutes ago)
VFR
Wind Visibility
100° at 4 knots 9 miles
Clouds
  • Overcast at 4,400' AGL
Temperature Dewpoint
-18°C / -0°F -20°C / -4°F
Humidity Altimeter Pressure
84% 29.45" Hg 1000.6 hPa